Time;durP1;ratioP1;P1;durP2;ratioP2;P2;SDS_P1;SDS_P2;PMS_P1;PMS_P2;Temp;Humidity;BMP_temperature;BMP_pressure;BME280_temperature;BME280_humidity;BME280_pressure;Samples;Min_cycle;Max_cycle;Signal;HPM_P1;HPM_P2
2023/04/22 00:01:34;;;;;;;6.33;5.80;;;10.70;99.90;;;;;;4956002;29;20286;-67
2023/04/22 00:04:01;;;;;;;5.57;5.17;;;10.70;99.90;;;;;;4952370;29;20205;-65
2023/04/22 00:06:28;;;;;;;6.33;5.80;;;10.60;99.90;;;;;;4947501;29;20223;-65
2023/04/22 00:08:55;;;;;;;6.33;5.80;;;10.60;99.90;;;;;;4955562;29;20204;-65
2023/04/22 00:11:22;;;;;;;5.80;5.37;;;10.50;99.90;;;;;;4952658;28;20209;-65
2023/04/22 00:13:50;;;;;;;6.10;5.53;;;10.50;99.90;;;;;;4954341;29;20213;-65
2023/04/22 00:16:17;;;;;;;7.00;6.33;;;10.50;99.90;;;;;;4951498;28;20286;-65
2023/04/22 00:18:44;;;;;;;6.17;5.73;;;10.40;99.90;;;;;;4948975;29;20261;-65
2023/04/22 00:21:11;;;;;;;6.80;6.20;;;10.40;99.90;;;;;;4954934;29;20248;-65
2023/04/22 00:23:38;;;;;;;5.67;5.23;;;10.30;99.90;;;;;;4949346;29;20201;-65
2023/04/22 00:26:05;;;;;;;7.40;6.70;;;10.30;99.90;;;;;;4950111;29;20702;-65
2023/04/22 00:28:33;;;;;;;6.20;5.70;;;10.30;99.90;;;;;;4951937;29;20228;-65
2023/04/22 00:31:02;;;;;;;5.70;5.30;;;10.20;99.90;;;;;;4954518;29;20200;-65
2023/04/22 00:33:29;;;;;;;6.03;5.63;;;10.20;99.90;;;;;;4954465;29;20310;-64
2023/04/22 00:35:55;;;;;;;6.10;5.70;;;10.10;99.90;;;;;;4946776;29;20205;-65
2023/04/22 00:38:23;;;;;;;6.63;5.80;;;10.10;99.90;;;;;;4953665;29;20629;-65
2023/04/22 00:40:50;;;;;;;5.87;5.47;;;10.00;99.90;;;;;;4945202;29;20680;-64
2023/04/22 00:43:17;;;;;;;6.63;5.90;;;10.00;99.90;;;;;;4951662;28;20287;-65
2023/04/22 00:45:46;;;;;;;7.57;5.57;;;10.00;99.90;;;;;;4954228;29;20211;-65
2023/04/22 00:48:14;;;;;;;5.40;4.90;;;10.00;99.90;;;;;;4951521;29;20227;-65
2023/04/22 00:50:41;;;;;;;5.93;5.43;;;10.00;99.90;;;;;;4942449;29;20287;-65
2023/04/22 00:53:09;;;;;;;6.57;6.07;;;10.00;99.90;;;;;;4948707;29;20200;-65
2023/04/22 00:55:36;;;;;;;6.53;5.83;;;10.00;99.90;;;;;;4946048;28;20204;-66
2023/04/22 00:58:03;;;;;;;5.70;5.27;;;10.00;99.90;;;;;;4941842;29;20232;-65
2023/04/22 01:00:31;;;;;;;6.30;5.70;;;10.00;99.90;;;;;;4953498;28;20230;-65
2023/04/22 01:10:28;;;;;;;5.57;5.13;;;10.00;99.90;;;;;;4940211;29;20236;-66
2023/04/22 01:12:56;;;;;;;4.93;4.47;;;10.00;99.90;;;;;;4946648;28;20670;-65
2023/04/22 01:15:24;;;;;;;6.80;4.47;;;9.90;99.90;;;;;;4948416;29;21603;-65
2023/04/22 01:17:53;;;;;;;3.53;3.23;;;9.90;99.90;;;;;;4945323;29;20695;-65
2023/04/22 01:20:21;;;;;;;2.90;2.80;;;9.90;99.90;;;;;;4943851;29;20258;-65
2023/04/22 01:22:50;;;;;;;3.53;2.83;;;9.90;99.90;;;;;;4955288;28;20569;-65
2023/04/22 01:25:18;;;;;;;2.40;2.30;;;9.90;99.90;;;;;;4950480;29;20619;-65
2023/04/22 01:27:45;;;;;;;2.97;2.77;;;9.90;99.90;;;;;;4949188;28;20306;-65
2023/04/22 01:30:13;;;;;;;2.27;2.17;;;9.90;99.90;;;;;;4951338;29;20211;-65
2023/04/22 01:32:40;;;;;;;1.90;1.80;;;9.80;99.90;;;;;;4946945;29;20257;-65
2023/04/22 01:35:08;;;;;;;0.90;0.90;;;9.80;99.90;;;;;;4953644;29;20235;-65
2023/04/22 01:37:35;;;;;;;1.07;0.90;;;9.80;99.90;;;;;;4948691;29;20288;-65
2023/04/22 01:40:03;;;;;;;0.80;0.80;;;9.80;99.90;;;;;;4949308;29;20260;-65
2023/04/22 01:42:32;;;;;;;0.50;0.50;;;9.80;99.90;;;;;;4941116;28;20291;-65
2023/04/22 01:44:59;;;;;;;0.50;0.50;;;9.80;99.90;;;;;;4934226;29;20208;-65
2023/04/22 01:47:27;;;;;;;0.50;0.50;;;9.90;99.90;;;;;;4939625;29;20708;-65
2023/04/22 01:49:54;;;;;;;0.50;0.50;;;9.90;99.90;;;;;;4948462;29;20268;-65
2023/04/22 01:52:24;;;;;;;0.40;0.40;;;9.90;99.90;;;;;;4949436;29;20212;-65
2023/04/22 01:54:51;;;;;;;0.47;0.43;;;9.90;99.90;;;;;;4949207;29;20318;-65
2023/04/22 01:57:20;;;;;;;1.47;0.57;;;10.00;99.90;;;;;;4953039;29;20227;-65
2023/04/22 01:59:49;;;;;;;0.50;0.50;;;10.10;99.90;;;;;;4953183;29;20734;-65
2023/04/22 02:02:16;;;;;;;0.50;0.50;;;10.10;99.90;;;;;;4945036;28;20208;-65
2023/04/22 02:04:43;;;;;;;0.70;0.60;;;10.20;99.90;;;;;;4948819;29;20251;-65
2023/04/22 02:07:10;;;;;;;1.27;0.77;;;10.40;99.90;;;;;;4951146;29;20278;-65
2023/04/22 02:09:37;;;;;;;1.27;0.70;;;10.40;99.90;;;;;;4946563;29;20282;-65
2023/04/22 02:12:04;;;;;;;0.60;0.60;;;10.40;99.90;;;;;;4953096;28;20201;-65
2023/04/22 02:14:31;;;;;;;0.70;0.70;;;10.40;99.90;;;;;;4951959;29;20228;-65
2023/04/22 02:17:01;;;;;;;0.53;0.53;;;10.40;99.90;;;;;;4943836;29;20228;-65
2023/04/22 02:19:28;;;;;;;0.37;0.37;;;10.30;99.90;;;;;;4948335;28;20207;-65
2023/04/22 02:21:55;;;;;;;0.73;0.50;;;10.30;99.90;;;;;;4952737;29;20265;-65
2023/04/22 02:24:22;;;;;;;0.47;0.40;;;10.30;99.90;;;;;;4952705;28;20201;-65
2023/04/22 02:26:49;;;;;;;1.00;0.43;;;10.20;99.90;;;;;;4952805;29;20227;-65
2023/04/22 02:29:16;;;;;;;1.57;0.50;;;10.20;99.90;;;;;;4942799;29;20623;-65
2023/04/22 02:31:43;;;;;;;0.63;0.63;;;10.20;99.90;;;;;;4952707;29;20303;-65
2023/04/22 02:34:11;;;;;;;0.53;0.53;;;10.20;99.90;;;;;;4943707;29;20740;-65
2023/04/22 02:36:38;;;;;;;0.50;0.50;;;10.20;99.90;;;;;;4947699;29;20224;-65
2023/04/22 02:39:05;;;;;;;0.70;0.70;;;10.20;99.90;;;;;;4949550;28;20738;-65
2023/04/22 02:41:32;;;;;;;1.33;0.60;;;10.20;99.90;;;;;;4944682;28;20307;-65
2023/04/22 02:43:59;;;;;;;0.63;0.53;;;10.20;99.90;;;;;;4956142;29;20266;-66
2023/04/22 02:46:26;;;;;;;0.40;0.40;;;10.20;99.90;;;;;;4955563;29;20862;-66
2023/04/22 02:48:53;;;;;;;1.30;0.70;;;10.30;99.90;;;;;;4945483;29;20204;-66
2023/04/22 02:51:22;;;;;;;0.40;0.40;;;10.20;99.90;;;;;;4947511;29;20280;-66
2023/04/22 02:53:49;;;;;;;0.30;0.30;;;10.20;99.90;;;;;;4953730;29;20286;-66
2023/04/22 02:56:16;;;;;;;0.40;0.40;;;10.30;99.90;;;;;;4952685;29;20205;-66
2023/04/22 02:58:43;;;;;;;0.40;0.40;;;10.40;99.90;;;;;;4950444;29;20677;-66
2023/04/22 03:01:11;;;;;;;0.40;0.40;;;10.40;99.90;;;;;;4959370;28;20208;-66
2023/04/22 03:03:38;;;;;;;0.60;0.60;;;10.30;99.90;;;;;;4956382;29;20251;-66
2023/04/22 03:06:05;;;;;;;0.60;0.60;;;10.30;99.90;;;;;;4953701;29;20201;-66
2023/04/22 03:08:33;;;;;;;0.40;0.40;;;10.20;99.90;;;;;;4956099;29;20223;-66
2023/04/22 03:11:00;;;;;;;0.50;0.50;;;10.20;99.90;;;;;;4954012;29;20267;-66
2023/04/22 03:13:27;;;;;;;0.57;0.57;;;10.10;99.90;;;;;;4946078;29;20197;-66
2023/04/22 03:15:54;;;;;;;0.60;0.60;;;10.00;99.90;;;;;;4955821;29;20290;-66
2023/04/22 03:18:21;;;;;;;2.30;0.60;;;10.00;99.90;;;;;;4954915;29;20232;-66
2023/04/22 03:20:49;;;;;;;1.53;0.60;;;9.90;99.90;;;;;;4946493;29;20205;-66
2023/04/22 03:23:16;;;;;;;1.23;0.60;;;9.80;99.90;;;;;;4951018;29;20215;-66
2023/04/22 03:25:44;;;;;;;1.37;0.60;;;9.70;99.90;;;;;;4948400;29;20204;-66
2023/04/22 03:28:11;;;;;;;0.43;0.43;;;9.80;99.90;;;;;;4955676;29;20226;-66
2023/04/22 03:30:38;;;;;;;0.33;0.33;;;10.00;99.90;;;;;;4955934;29;20270;-66
2023/04/22 03:33:05;;;;;;;0.50;0.40;;;10.00;99.90;;;;;;4955647;29;20207;-66
2023/04/22 03:35:32;;;;;;;0.67;0.67;;;9.90;99.90;;;;;;4955702;29;20319;-66
2023/04/22 03:37:59;;;;;;;0.50;0.50;;;10.00;99.90;;;;;;4947009;29;20300;-66
2023/04/22 03:40:26;;;;;;;0.60;0.60;;;10.10;99.90;;;;;;4947475;29;20207;-66
2023/04/22 03:42:55;;;;;;;0.80;0.57;;;10.20;99.90;;;;;;4954504;29;20679;-65
2023/04/22 03:45:22;;;;;;;0.80;0.80;;;10.20;99.90;;;;;;4946553;29;20725;-66
2023/04/22 03:47:49;;;;;;;0.90;0.90;;;10.40;99.90;;;;;;4946455;29;20704;-66
2023/04/22 03:50:16;;;;;;;1.27;0.60;;;10.40;99.90;;;;;;4955556;29;20213;-66
2023/04/22 03:52:43;;;;;;;0.33;0.33;;;10.50;99.90;;;;;;4948560;28;20898;-66
2023/04/22 03:55:10;;;;;;;0.60;0.60;;;10.50;99.90;;;;;;4952207;29;20228;-66
2023/04/22 03:57:37;;;;;;;1.70;0.60;;;10.50;99.90;;;;;;4955235;29;20804;-66
2023/04/22 04:00:07;;;;;;;0.40;0.40;;;10.50;99.90;;;;;;4952173;29;20258;-66
2023/04/22 04:02:34;;;;;;;1.13;0.43;;;10.40;99.90;;;;;;4931789;29;20274;-66
2023/04/22 04:05:01;;;;;;;0.60;0.60;;;10.40;99.90;;;;;;4955239;29;20203;-66
2023/04/22 04:07:28;;;;;;;3.43;0.53;;;10.50;99.90;;;;;;4955243;29;20315;-66
2023/04/22 04:09:55;;;;;;;1.50;0.77;;;10.50;99.90;;;;;;4954013;28;20340;-66
2023/04/22 04:12:22;;;;;;;0.60;0.60;;;10.50;99.90;;;;;;4955102;29;20212;-66
2023/04/22 04:14:49;;;;;;;0.60;0.60;;;10.50;99.90;;;;;;4954852;29;20235;-66
2023/04/22 04:17:24;;;;;;;1.17;0.60;;;10.40;99.90;;;;;;4944771;29;20224;-66
2023/04/22 04:19:51;;;;;;;0.93;0.53;;;10.30;99.90;;;;;;4955292;29;20281;-67
2023/04/22 04:22:21;;;;;;;0.80;0.63;;;10.20;99.90;;;;;;4950951;29;20667;-67
2023/04/22 04:24:48;;;;;;;0.80;0.73;;;10.20;99.90;;;;;;4948362;29;20213;-67
2023/04/22 04:27:15;;;;;;;2.73;0.50;;;10.20;99.90;;;;;;4946750;29;20228;-67
2023/04/22 04:29:43;;;;;;;0.37;0.37;;;10.10;99.90;;;;;;4950389;29;20209;-67
2023/04/22 04:32:10;;;;;;;0.60;0.60;;;10.10;99.90;;;;;;4946653;29;20208;-66
2023/04/22 04:34:38;;;;;;;0.63;0.63;;;10.20;99.90;;;;;;4945485;29;20764;-66
2023/04/22 04:37:05;;;;;;;0.40;0.40;;;10.20;99.90;;;;;;4944886;29;20284;-67
2023/04/22 04:39:32;;;;;;;1.93;0.90;;;10.20;99.90;;;;;;4987339;23;20326;-56
2023/04/22 04:41:59;;;;;;;0.40;0.40;;;10.20;99.90;;;;;;4966566;28;20707;-57
2023/04/22 04:44:27;;;;;;;3.70;0.70;;;10.20;99.90;;;;;;4969312;28;20268;-57
2023/04/22 04:46:54;;;;;;;2.03;0.77;;;10.20;99.90;;;;;;4974219;28;20298;-56
2023/04/22 04:49:21;;;;;;;1.90;0.60;;;10.20;99.90;;;;;;4976052;28;20702;-56
2023/04/22 04:51:50;;;;;;;0.60;0.60;;;10.20;99.90;;;;;;4973152;28;20207;-56
2023/04/22 04:54:17;;;;;;;0.63;0.63;;;10.20;99.90;;;;;;4972077;28;20207;-56
2023/04/22 04:56:44;;;;;;;3.10;0.67;;;10.20;99.90;;;;;;4972422;28;20263;-56
2023/04/22 04:59:11;;;;;;;0.70;0.70;;;10.20;99.90;;;;;;4974707;28;20235;-56
2023/04/22 05:01:38;;;;;;;0.60;0.60;;;10.30;99.90;;;;;;4974445;28;20212;-56
2023/04/22 05:04:05;;;;;;;0.93;0.70;;;10.30;99.90;;;;;;4973386;28;20274;-57
2023/04/22 05:06:32;;;;;;;0.60;0.60;;;10.30;99.90;;;;;;4970924;28;20208;-56
2023/04/22 05:09:01;;;;;;;0.60;0.60;;;10.40;99.90;;;;;;4971389;28;20224;-56
2023/04/22 05:11:28;;;;;;;0.50;0.50;;;10.50;99.90;;;;;;4972243;28;20608;-56
2023/04/22 05:13:55;;;;;;;1.40;0.60;;;10.70;99.90;;;;;;4973928;28;20211;-56
2023/04/22 05:16:22;;;;;;;1.20;0.57;;;10.90;99.90;;;;;;4974328;28;20246;-56
2023/04/22 05:18:49;;;;;;;0.57;0.50;;;11.10;99.90;;;;;;4974112;28;20799;-56
2023/04/22 05:21:16;;;;;;;2.93;0.50;;;11.20;99.90;;;;;;4973520;28;20593;-56
2023/04/22 05:23:43;;;;;;;1.13;1.03;;;11.30;99.90;;;;;;4970837;28;20341;-57
2023/04/22 05:26:11;;;;;;;0.83;0.67;;;11.40;99.90;;;;;;4972742;28;20204;-56
2023/04/22 05:28:38;;;;;;;0.87;0.60;;;11.60;99.90;;;;;;4966572;28;20278;-56
2023/04/22 05:31:05;;;;;;;0.50;0.50;;;11.70;99.90;;;;;;4972814;28;20617;-56
2023/04/22 05:33:32;;;;;;;0.53;0.53;;;11.60;99.90;;;;;;4972385;28;20211;-56
2023/04/22 05:35:59;;;;;;;0.40;0.40;;;11.60;99.90;;;;;;4972217;28;20220;-56
2023/04/22 05:38:28;;;;;;;0.57;0.57;;;11.70;99.90;;;;;;4972407;28;20279;-57
2023/04/22 05:40:55;;;;;;;0.70;0.70;;;11.80;99.90;;;;;;4970685;28;20203;-56
2023/04/22 05:43:23;;;;;;;2.53;0.40;;;11.90;99.90;;;;;;4972100;28;20210;-56
2023/04/22 05:45:50;;;;;;;2.50;0.70;;;12.00;99.90;;;;;;4972472;28;20207;-57
2023/04/22 05:48:17;;;;;;;0.53;0.53;;;12.30;99.90;;;;;;4972192;28;20294;-56
2023/04/22 05:50:44;;;;;;;2.67;0.60;;;12.90;99.90;;;;;;4973085;28;20207;-57
2023/04/22 05:53:11;;;;;;;0.57;0.57;;;13.80;99.90;;;;;;4972436;28;20280;-57
2023/04/22 05:55:38;;;;;;;0.73;0.73;;;15.00;99.90;;;;;;4972781;28;20263;-57
2023/04/22 05:58:05;;;;;;;0.70;0.70;;;15.60;99.90;;;;;;4972284;28;20276;-57
2023/04/22 06:00:33;;;;;;;0.43;0.43;;;15.70;99.90;;;;;;4973006;28;20208;-57
2023/04/22 06:03:00;;;;;;;0.57;0.57;;;15.80;99.90;;;;;;4972661;28;20215;-57
2023/04/22 06:05:28;;;;;;;0.43;0.43;;;15.70;99.90;;;;;;4972932;28;20247;-56
2023/04/22 06:07:55;;;;;;;0.50;0.50;;;15.60;99.90;;;;;;4971323;28;20611;-57
2023/04/22 06:10:22;;;;;;;0.50;0.50;;;15.70;99.90;;;;;;4971052;28;20216;-56
2023/04/22 06:12:49;;;;;;;0.60;0.60;;;15.70;99.90;;;;;;4971633;28;20207;-57
2023/04/22 06:15:16;;;;;;;0.87;0.80;;;15.40;99.90;;;;;;4971788;28;20729;-57
2023/04/22 06:17:44;;;;;;;1.80;0.70;;;15.30;99.90;;;;;;4972985;28;20669;-57
2023/04/22 06:20:12;;;;;;;0.70;0.70;;;15.10;99.90;;;;;;4972824;28;20255;-56
2023/04/22 06:22:39;;;;;;;0.60;0.60;;;15.20;99.90;;;;;;4972347;28;20255;-57
2023/04/22 06:25:07;;;;;;;1.03;0.80;;;15.20;99.90;;;;;;4971735;28;20204;-56
2023/04/22 06:27:34;;;;;;;0.90;0.90;;;16.00;99.90;;;;;;4972127;28;20200;-56
2023/04/22 06:30:01;;;;;;;0.90;0.60;;;16.90;99.90;;;;;;4972356;28;20232;-57
2023/04/22 06:32:28;;;;;;;2.50;1.10;;;17.30;99.90;;;;;;4972325;28;20259;-57
2023/04/22 06:34:56;;;;;;;2.73;0.70;;;17.00;99.90;;;;;;4972620;28;20200;-57
2023/04/22 06:37:25;;;;;;;1.50;1.13;;;17.10;99.90;;;;;;4972624;28;20226;-56
2023/04/22 06:39:52;;;;;;;0.63;0.63;;;16.90;99.90;;;;;;4971983;28;20709;-57
2023/04/22 06:42:21;;;;;;;0.90;0.90;;;16.60;99.90;;;;;;4970054;28;20267;-57
2023/04/22 06:44:48;;;;;;;0.88;0.82;;;16.30;99.90;;;;;;4970169;28;20520;-56
2023/04/22 06:47:15;;;;;;;0.90;0.90;;;15.80;99.90;;;;;;4970408;28;20209;-56
2023/04/22 06:49:43;;;;;;;0.90;0.70;;;15.60;99.90;;;;;;4972202;28;20221;-56
2023/04/22 06:52:12;;;;;;;0.97;0.83;;;15.50;99.90;;;;;;4971624;28;20208;-57
2023/04/22 06:54:39;;;;;;;1.67;1.57;;;15.40;99.90;;;;;;4971337;28;20201;-56
2023/04/22 06:57:06;;;;;;;5.27;1.87;;;16.00;99.90;;;;;;4971848;28;20282;-57
2023/04/22 06:59:34;;;;;;;1.13;1.13;;;16.10;99.90;;;;;;4970944;28;20229;-57
2023/04/22 07:02:01;;;;;;;1.63;1.53;;;16.00;99.90;;;;;;4972164;28;20201;-57
2023/04/22 07:04:28;;;;;;;1.43;1.33;;;15.70;99.90;;;;;;4966146;28;20606;-57
2023/04/22 07:06:55;;;;;;;2.73;2.60;;;15.80;99.90;;;;;;4970674;28;20260;-57
2023/04/22 07:09:23;;;;;;;2.47;1.60;;;15.90;99.90;;;;;;4971303;28;20231;-57
2023/04/22 07:11:50;;;;;;;10.53;1.80;;;15.90;99.90;;;;;;4970018;28;20204;-57
2023/04/22 07:14:17;;;;;;;4.93;1.90;;;15.80;99.90;;;;;;4966000;28;20197;-60
2023/04/22 07:16:44;;;;;;;1.67;1.57;;;15.80;99.90;;;;;;4970473;28;20867;-59
2023/04/22 07:19:11;;;;;;;3.63;1.90;;;15.90;99.90;;;;;;4971580;28;20224;-59
2023/04/22 07:21:38;;;;;;;1.70;1.53;;;16.00;99.90;;;;;;4970098;28;20205;-59
2023/04/22 07:24:05;;;;;;;1.93;1.30;;;16.30;99.90;;;;;;4969119;28;20560;-59
2023/04/22 07:26:35;;;;;;;1.40;1.07;;;16.40;99.90;;;;;;4971410;28;20307;-59
2023/04/22 07:29:02;;;;;;;1.27;1.20;;;16.60;99.90;;;;;;4970776;28;20220;-58
2023/04/22 07:31:28;;;;;;;1.57;1.33;;;17.20;99.90;;;;;;4961709;28;20251;-59
2023/04/22 07:33:55;;;;;;;1.33;1.00;;;18.00;99.90;;;;;;4973180;28;20259;-60
2023/04/22 07:36:22;;;;;;;1.10;1.10;;;18.60;99.90;;;;;;4974776;28;20260;-60
2023/04/22 07:38:49;;;;;;;1.23;1.23;;;18.90;99.90;;;;;;4974340;28;20232;-59
2023/04/22 07:41:16;;;;;;;1.23;1.13;;;18.60;99.90;;;;;;4975396;28;20247;-60
2023/04/22 07:43:44;;;;;;;1.10;1.03;;;18.70;99.90;;;;;;4972431;28;20581;-59
2023/04/22 07:46:11;;;;;;;1.17;0.93;;;18.30;99.90;;;;;;4973298;28;20563;-59
2023/04/22 07:48:38;;;;;;;1.13;1.03;;;18.70;99.90;;;;;;4974424;28;20694;-59
2023/04/22 07:51:05;;;;;;;0.93;0.73;;;19.20;99.90;;;;;;4972053;28;20618;-56
2023/04/22 07:53:32;;;;;;;2.50;1.00;;;19.80;99.90;;;;;;4974849;28;20254;-57
2023/04/22 07:56:00;;;;;;;0.77;0.60;;;19.80;99.90;;;;;;4972311;28;20705;-60
2023/04/22 07:58:27;;;;;;;0.93;0.93;;;20.10;99.90;;;;;;4969601;28;20220;-61
2023/04/22 08:00:55;;;;;;;1.70;0.73;;;19.90;99.90;;;;;;4965269;28;20741;-59
2023/04/22 08:03:23;;;;;;;0.60;0.60;;;20.20;99.90;;;;;;4974613;28;20263;-59
2023/04/22 08:05:50;;;;;;;0.73;0.73;;;20.80;99.90;;;;;;4974582;28;20279;-59
2023/04/22 08:08:17;;;;;;;1.07;1.07;;;21.20;99.90;;;;;;4970644;28;20220;-59
2023/04/22 08:10:44;;;;;;;0.70;0.70;;;22.10;98.10;;;;;;4974316;28;20201;-59
2023/04/22 08:13:11;;;;;;;0.80;0.80;;;22.40;97.20;;;;;;4972438;28;20662;-59
2023/04/22 08:15:38;;;;;;;2.30;0.80;;;22.70;98.10;;;;;;4974763;28;20217;-58
2023/04/22 08:18:06;;;;;;;1.60;0.80;;;22.60;95.90;;;;;;4968952;28;20225;-59
2023/04/22 08:20:33;;;;;;;0.77;0.77;;;23.20;97.30;;;;;;4970975;28;20215;-60
2023/04/22 08:23:00;;;;;;;1.27;0.60;;;23.90;95.80;;;;;;4974386;28;20200;-59
2023/04/22 08:25:28;;;;;;;0.70;0.70;;;23.70;92.70;;;;;;4974432;28;20259;-59
2023/04/22 08:27:55;;;;;;;0.60;0.60;;;24.60;93.90;;;;;;4977097;28;20212;-60
2023/04/22 08:30:22;;;;;;;0.70;0.70;;;25.00;94.80;;;;;;4973534;28;20201;-60
2023/04/22 08:32:52;;;;;;;0.60;0.60;;;24.70;93.00;;;;;;4977103;28;20199;-59
2023/04/22 08:35:20;;;;;;;1.03;0.70;;;25.20;93.50;;;;;;4965750;28;20200;-59
2023/04/22 08:37:47;;;;;;;0.73;0.57;;;25.30;91.00;;;;;;4973239;28;20201;-61
2023/04/22 08:40:14;;;;;;;1.40;0.60;;;25.90;92.40;;;;;;4973915;28;20208;-61
2023/04/22 08:42:43;;;;;;;0.77;0.77;;;26.40;91.80;;;;;;4973765;28;20204;-60
2023/04/22 08:45:11;;;;;;;2.93;1.00;;;26.20;88.50;;;;;;4972026;28;20259;-60
2023/04/22 08:47:39;;;;;;;1.47;0.60;;;25.80;83.80;;;;;;4974525;28;20202;-61
2023/04/22 08:50:08;;;;;;;1.20;0.70;;;25.70;90.00;;;;;;4977100;28;20250;-61
2023/04/22 08:52:37;;;;;;;1.90;0.77;;;25.90;89.40;;;;;;4976137;28;20760;-60
2023/04/22 08:55:05;;;;;;;4.17;3.87;;;26.20;86.60;;;;;;4980671;28;20204;-60
2023/04/22 08:57:32;;;;;;;5.73;5.27;;;26.20;90.60;;;;;;4973496;28;20228;-59
2023/04/22 08:59:59;;;;;;;4.83;4.63;;;25.90;92.80;;;;;;4973333;28;20220;-60
2023/04/22 09:02:27;;;;;;;4.43;4.23;;;24.90;94.90;;;;;;4970678;28;20263;-61
2023/04/22 09:04:54;;;;;;;3.33;3.13;;;25.00;96.00;;;;;;4976194;28;20678;-60
2023/04/22 09:07:24;;;;;;;4.40;4.10;;;24.10;93.90;;;;;;4973256;28;20196;-59
2023/04/22 09:09:54;;;;;;;4.70;4.40;;;24.10;94.40;;;;;;4970251;28;20230;-59
2023/04/22 09:12:22;;;;;;;6.43;6.03;;;24.00;95.30;;;;;;4971497;28;20205;-61
2023/04/22 09:14:49;;;;;;;6.80;6.40;;;24.30;96.20;;;;;;4974658;28;20200;-60
2023/04/22 09:17:17;;;;;;;8.93;8.27;;;24.40;96.70;;;;;;4974482;28;20220;-60
2023/04/22 09:19:44;;;;;;;10.57;9.80;;;24.10;97.30;;;;;;4975687;28;20706;-59
2023/04/22 09:22:14;;;;;;;8.60;8.00;;;23.80;97.70;;;;;;4972799;28;20590;-62
2023/04/22 09:24:44;;;;;;;9.77;9.03;;;23.50;97.40;;;;;;4970963;28;20655;-61
2023/04/22 09:27:12;;;;;;;10.33;9.47;;;23.70;99.00;;;;;;4972052;28;20203;-61
2023/04/22 09:29:39;;;;;;;9.77;8.87;;;23.50;98.20;;;;;;4974858;28;20243;-62
2023/04/22 09:32:12;;;;;;;10.37;9.47;;;23.30;98.60;;;;;;4977565;28;20200;-61
2023/04/22 09:34:51;;;;;;;9.90;9.17;;;23.60;99.30;;;;;;4970622;28;20205;-60
2023/04/22 09:37:25;;;;;;;10.10;9.20;;;23.60;99.30;;;;;;4972763;28;20288;-60
2023/04/22 09:39:53;;;;;;;9.70;9.00;;;23.00;99.00;;;;;;4971956;28;20287;-62
2023/04/22 09:42:24;;;;;;;10.10;9.37;;;22.50;99.90;;;;;;4967354;28;20264;-61
2023/04/22 09:44:52;;;;;;;9.23;8.13;;;22.20;99.90;;;;;;4974243;28;20224;-59
2023/04/22 09:47:22;;;;;;;9.70;8.90;;;22.90;99.90;;;;;;4971450;28;20297;-60
2023/04/22 09:49:50;;;;;;;9.43;8.53;;;23.00;98.80;;;;;;4970629;28;20308;-61
2023/04/22 09:52:25;;;;;;;9.50;8.57;;;23.30;99.40;;;;;;4978000;28;20716;-60
2023/04/22 09:54:53;;;;;;;9.20;8.33;;;23.50;98.90;;;;;;4970608;28;20672;-61
2023/04/22 09:57:22;;;;;;;8.47;7.67;;;23.80;98.00;;;;;;4973636;28;20283;-59
2023/04/22 09:59:51;;;;;;;9.63;8.63;;;23.50;98.20;;;;;;4969458;28;20225;-61
2023/04/22 10:02:29;;;;;;;8.53;7.87;;;23.60;97.90;;;;;;4970572;28;20197;-61
2023/04/22 10:04:57;;;;;;;10.87;9.47;;;23.70;99.40;;;;;;4967347;28;20287;-62
2023/04/22 10:07:30;;;;;;;9.00;8.30;;;23.50;97.70;;;;;;4969110;28;20211;-61
2023/04/22 10:09:57;;;;;;;9.60;8.83;;;24.00;99.70;;;;;;4970642;28;20220;-61
2023/04/22 10:12:24;;;;;;;6.80;6.40;;;24.10;98.20;;;;;;4971411;28;20271;-61
2023/04/22 10:14:53;;;;;;;8.10;7.50;;;24.60;99.50;;;;;;4969734;28;20255;-61
2023/04/22 10:17:21;;;;;;;8.23;7.63;;;24.70;98.60;;;;;;4970585;28;20224;-61
2023/04/22 10:19:50;;;;;;;9.17;8.40;;;24.20;98.30;;;;;;4979355;28;20275;-61
2023/04/22 10:22:20;;;;;;;8.63;8.03;;;23.00;99.70;;;;;;4970982;28;20587;-62
2023/04/22 10:24:49;;;;;;;9.33;8.73;;;23.10;99.20;;;;;;4971584;28;20196;-61
2023/04/22 10:27:24;;;;;;;9.17;8.47;;;22.60;99.90;;;;;;4973936;28;20301;-62
2023/04/22 10:29:52;;;;;;;9.00;8.20;;;21.90;99.90;;;;;;4971068;28;20756;-61
2023/04/22 10:32:27;;;;;;;10.53;9.60;;;22.10;99.90;;;;;;4972151;28;20271;-56
2023/04/22 10:35:12;;;;;;;9.23;8.60;;;22.00;99.90;;;;;;4972316;28;20239;-58
2023/04/22 10:37:44;;;;;;;10.30;9.37;;;22.00;99.90;;;;;;4970939;28;20278;-58
2023/04/22 10:40:15;;;;;;;10.40;9.50;;;22.50;99.90;;;;;;4994006;23;20229;-65
2023/04/22 10:42:46;;;;;;;10.33;9.53;;;22.40;99.90;;;;;;4978515;28;20232;-64
2023/04/22 10:45:15;;;;;;;11.50;10.40;;;22.30;99.90;;;;;;4980073;28;20199;-65
2023/04/22 10:47:42;;;;;;;11.17;10.27;;;22.10;99.90;;;;;;4989625;28;20196;-64
2023/04/22 10:50:18;;;;;;;13.17;10.27;;;20.90;99.90;;;;;;4991803;28;20783;-64
2023/04/22 10:52:48;;;;;;;9.55;8.90;;;20.20;99.90;;;;;;4991989;28;20433;-63
2023/04/22 10:55:15;;;;;;;10.97;9.93;;;20.00;99.90;;;;;;4985567;28;20203;-67
2023/04/22 10:57:43;;;;;;;11.57;10.57;;;20.00;99.90;;;;;;4976713;28;20220;-62
2023/04/22 11:00:30;;;;;;;9.50;8.70;;;20.00;99.90;;;;;;4968479;28;20224;-60
2023/04/22 11:03:13;;;;;;;9.97;9.20;;;20.40;99.90;;;;;;4986791;28;20196;-63
2023/04/22 11:05:40;;;;;;;10.63;9.63;;;21.00;99.90;;;;;;4990228;28;20274;-64
2023/04/22 11:08:11;;;;;;;11.00;9.83;;;21.00;99.90;;;;;;4983716;28;20254;-65
2023/04/22 11:10:44;;;;;;;11.93;10.90;;;20.80;99.90;;;;;;4976015;28;20232;-65
2023/04/22 11:13:14;;;;;;;10.73;9.73;;;20.30;99.90;;;;;;4976924;28;20208;-62
2023/04/22 11:15:44;;;;;;;10.77;9.90;;;19.90;99.90;;;;;;4974759;28;20338;-63
2023/04/22 11:18:17;;;;;;;12.00;10.77;;;20.00;99.90;;;;;;4970851;28;20637;-63
2023/04/22 11:20:44;;;;;;;10.87;9.97;;;19.70;99.90;;;;;;4956663;29;20312;-64
2023/04/22 11:23:11;;;;;;;10.40;9.53;;;19.50;99.90;;;;;;4960749;28;20290;-63
2023/04/22 11:25:38;;;;;;;11.03;9.90;;;19.70;99.90;;;;;;4987512;28;20199;-65
2023/04/22 11:28:05;;;;;;;9.93;9.10;;;20.00;99.90;;;;;;4992554;28;20717;-64
2023/04/22 11:30:32;;;;;;;10.33;9.33;;;20.10;99.90;;;;;;4975837;28;20788;-62
2023/04/22 11:33:00;;;;;;;11.13;10.13;;;20.20;99.90;;;;;;4975512;28;20204;-61
2023/04/22 11:35:30;;;;;;;9.77;8.97;;;20.50;99.90;;;;;;4973817;28;20208;-63
2023/04/22 11:37:59;;;;;;;10.43;9.60;;;20.50;99.90;;;;;;4973350;28;20275;-62
2023/04/22 11:40:28;;;;;;;11.10;10.10;;;20.80;99.90;;;;;;4982813;28;20244;-61
2023/04/22 11:42:55;;;;;;;10.23;9.23;;;20.90;99.90;;;;;;4990349;28;20677;-64
2023/04/22 11:45:22;;;;;;;10.13;9.13;;;21.00;99.90;;;;;;4990360;28;20204;-62
2023/04/22 11:47:51;;;;;;;9.23;8.50;;;20.70;99.90;;;;;;4975544;28;20244;-62
2023/04/22 11:50:22;;;;;;;8.83;7.77;;;20.90;99.90;;;;;;4975615;28;20228;-62
2023/04/22 11:52:51;;;;;;;10.00;9.13;;;20.90;99.90;;;;;;4961462;28;20265;-62
2023/04/22 11:55:21;;;;;;;9.50;8.60;;;21.10;99.90;;;;;;4972578;28;20208;-63
2023/04/22 11:57:54;;;;;;;8.70;8.10;;;21.20;99.90;;;;;;4980349;28;20228;-63
2023/04/22 12:00:21;;;;;;;9.80;8.87;;;21.40;99.90;;;;;;4985062;28;20224;-65
2023/04/22 12:03:00;;;;;;;9.33;8.53;;;21.00;99.90;;;;;;4985440;28;20209;-64
2023/04/22 12:05:39;;;;;;;7.93;7.30;;;21.00;99.90;;;;;;4974866;28;20215;-63
2023/04/22 12:08:10;;;;;;;10.23;9.43;;;21.00;99.90;;;;;;4974255;28;20211;-63
2023/04/22 12:10:42;;;;;;;8.77;8.07;;;20.90;99.90;;;;;;4979181;28;20224;-63
2023/04/22 12:13:09;;;;;;;9.50;8.57;;;20.90;99.90;;;;;;4972854;28;20897;-64
2023/04/22 12:15:41;;;;;;;9.53;8.83;;;21.00;99.90;;;;;;4973538;28;20204;-62
2023/04/22 12:18:08;;;;;;;9.50;8.33;;;20.90;99.90;;;;;;4971495;28;20228;-68
2023/04/22 12:20:38;;;;;;;8.50;7.80;;;21.10;99.90;;;;;;4976705;28;20648;-68
2023/04/22 12:23:05;;;;;;;7.73;7.13;;;21.10;99.90;;;;;;4981308;28;20196;-68
2023/04/22 12:25:33;;;;;;;8.77;8.17;;;20.90;99.90;;;;;;4974050;28;20199;-68
2023/04/22 12:28:00;;;;;;;8.43;7.57;;;20.80;99.90;;;;;;4974206;28;20291;-68
2023/04/22 12:30:27;;;;;;;9.17;8.40;;;20.90;99.90;;;;;;4989041;28;20255;-68
2023/04/22 12:32:55;;;;;;;7.53;6.93;;;20.60;99.90;;;;;;4981648;28;20199;-68
2023/04/22 12:35:22;;;;;;;7.73;7.23;;;20.80;99.90;;;;;;4979881;28;20617;-68
2023/04/22 12:37:50;;;;;;;8.70;7.90;;;20.80;99.90;;;;;;4969793;28;20748;-68
2023/04/22 12:40:17;;;;;;;7.27;6.57;;;20.60;99.90;;;;;;4973520;28;20232;-68
2023/04/22 12:42:44;;;;;;;7.13;6.63;;;20.50;99.90;;;;;;4982578;28;20251;-68
2023/04/22 12:45:12;;;;;;;5.63;5.20;;;20.00;99.90;;;;;;4962848;28;20260;-67
2023/04/22 12:47:39;;;;;;;5.63;4.77;;;19.70;99.90;;;;;;4955540;28;20209;-67
2023/04/22 12:50:07;;;;;;;4.73;4.43;;;19.70;99.90;;;;;;4973460;28;20232;-68
2023/04/22 12:52:35;;;;;;;5.43;5.07;;;19.70;99.90;;;;;;4978390;28;20200;-68
2023/04/22 12:55:04;;;;;;;6.23;5.63;;;19.80;99.90;;;;;;4973756;28;20291;-68
2023/04/22 12:57:31;;;;;;;4.70;4.47;;;19.80;99.90;;;;;;4980906;28;20706;-68